Time;durP1;ratioP1;P1;durP2;ratioP2;P2;SDS_P1;SDS_P2;PMS_P1;PMS_P2;Temp;Humidity;BMP_temperature;BMP_pressure;BME280_temperature;BME280_humidity;BME280_pressure;Samples;Min_cycle;Max_cycle;Signal;HPM_P1;HPM_P2
2023/07/11 00:02:03;;;;;;;5.20;4.20;;;;;;;22.49;60.13;98390.31;5072479;28;20215;-90
2023/07/11 00:04:30;;;;;;;5.33;4.47;;;;;;;22.45;60.27;98375.53;5072567;28;20298;-90
2023/07/11 00:06:56;;;;;;;5.13;4.00;;;;;;;22.48;60.17;98377.03;5072567;28;20228;-90
2023/07/11 00:09:23;;;;;;;4.40;3.80;;;;;;;22.48;60.17;98375.19;5072121;28;20218;-90
2023/07/11 00:11:51;;;;;;;4.53;4.07;;;;;;;22.45;60.59;98372.00;5072362;28;20234;-90
2023/07/11 00:14:17;;;;;;;4.47;4.07;;;;;;;22.35;61.23;98385.63;5072374;28;20203;-91
2023/07/11 00:16:49;;;;;;;5.47;4.23;;;;;;;22.29;61.26;98380.94;5071956;28;20726;-90
2023/07/11 00:19:19;;;;;;;4.67;4.07;;;;;;;22.24;61.45;98374.41;5071914;28;20243;-90
2023/07/11 00:21:46;;;;;;;5.80;4.10;;;;;;;22.19;61.29;98374.91;5072074;28;20219;-90
2023/07/11 00:24:13;;;;;;;4.53;4.13;;;;;;;22.17;61.47;98366.16;5072387;28;20199;-91
2023/07/11 00:26:40;;;;;;;5.50;4.00;;;;;;;22.15;61.92;98373.59;5071724;28;20588;-90
2023/07/11 00:29:16;;;;;;;4.57;4.03;;;;;;;22.03;62.54;98372.28;5072118;28;20215;-90
2023/07/11 00:31:42;;;;;;;4.87;4.10;;;;;;;21.91;63.08;98370.94;5071962;28;20210;-90
2023/07/11 00:34:09;;;;;;;6.50;4.77;;;;;;;21.84;63.11;98375.34;5071795;28;20670;-89
2023/07/11 00:36:35;;;;;;;5.60;4.10;;;;;;;21.81;63.66;98364.91;5071869;28;20231;-91
2023/07/11 00:39:02;;;;;;;4.97;4.33;;;;;;;21.79;63.27;98366.94;5071830;28;20211;-91
2023/07/11 00:41:29;;;;;;;4.73;4.23;;;;;;;21.69;63.72;98365.44;5071742;28;20458;-90
2023/07/11 00:43:55;;;;;;;6.20;4.53;;;;;;;21.53;64.29;98365.41;5071789;28;20215;-90
2023/07/11 00:46:23;;;;;;;6.20;4.73;;;;;;;21.37;65.17;98368.94;5071574;28;20670;-90
2023/07/11 00:48:53;;;;;;;5.00;4.37;;;;;;;21.24;66.11;98368.59;5071288;28;20203;-91
2023/07/11 00:51:23;;;;;;;4.80;4.30;;;;;;;21.12;67.71;98367.22;5071480;28;20204;-90
2023/07/11 00:53:50;;;;;;;5.00;4.50;;;;;;;21.08;68.12;98375.78;5071919;28;20212;-90
2023/07/11 00:56:21;;;;;;;5.90;4.73;;;;;;;21.04;68.15;98361.81;5071465;28;20203;-90
2023/07/11 00:58:48;;;;;;;5.63;4.80;;;;;;;20.94;68.56;98366.53;5071215;28;20211;-89
2023/07/11 01:01:16;;;;;;;5.40;4.90;;;;;;;20.90;69.14;98367.03;5069438;28;20207;-90
2023/07/11 01:03:44;;;;;;;6.23;4.63;;;;;;;20.85;69.39;98364.78;5069105;28;20212;-90
2023/07/11 01:06:13;;;;;;;6.20;4.90;;;;;;;20.84;69.30;98365.78;5068177;28;20203;-91
2023/07/11 01:08:40;;;;;;;5.40;4.70;;;;;;;20.79;69.28;98360.06;5068833;28;20210;-90
2023/07/11 01:11:07;;;;;;;4.83;4.33;;;;;;;20.70;70.03;98357.50;5071206;28;20208;-90
2023/07/11 01:13:33;;;;;;;5.23;4.27;;;;;;;20.66;70.22;98359.69;5071219;28;20211;-90
2023/07/11 01:16:00;;;;;;;4.87;4.33;;;;;;;20.62;70.30;98362.88;5071285;28;20234;-90
2023/07/11 01:18:26;;;;;;;6.17;4.50;;;;;;;20.55;70.38;98351.91;5071540;28;20514;-90
2023/07/11 01:20:54;;;;;;;6.17;4.77;;;;;;;20.47;70.64;98349.22;5071288;28;20219;-90
2023/07/11 01:23:23;;;;;;;6.10;5.00;;;;;;;20.42;71.01;98346.16;5071392;28;20211;-90
2023/07/11 01:25:50;;;;;;;5.23;4.70;;;;;;;20.38;71.48;98355.56;5071287;28;20203;-89
2023/07/11 01:28:17;;;;;;;5.40;4.70;;;;;;;20.35;71.98;98355.06;5070965;28;20223;-89
2023/07/11 01:30:43;;;;;;;6.37;4.73;;;;;;;20.31;71.91;98353.69;5071040;28;20215;-90
2023/07/11 01:33:09;;;;;;;5.93;5.17;;;;;;;20.26;72.19;98361.38;5071212;28;20678;-90
2023/07/11 01:35:36;;;;;;;7.20;5.30;;;;;;;20.23;72.61;98351.78;5071190;28;20214;-90
2023/07/11 01:38:02;;;;;;;5.67;5.17;;;;;;;20.22;72.63;98350.13;5071118;28;20239;-90
2023/07/11 01:40:30;;;;;;;6.50;5.73;;;;;;;20.19;73.68;98355.78;5070845;28;20289;-90
2023/07/11 01:42:57;;;;;;;6.20;5.23;;;;;;;20.19;73.65;98350.44;5071519;28;20566;-90
2023/07/11 01:45:24;;;;;;;7.53;5.03;;;;;;;20.16;73.50;98344.53;5071277;28;20416;-90
2023/07/11 01:47:51;;;;;;;5.20;4.60;;;;;;;20.12;73.62;98338.66;5071124;28;20235;-90
2023/07/11 01:50:17;;;;;;;8.87;5.17;;;;;;;20.09;73.93;98343.50;5070719;28;20211;-90
2023/07/11 01:52:44;;;;;;;6.17;5.10;;;;;;;20.07;74.49;98338.31;5071168;28;20439;-90
2023/07/11 01:55:11;;;;;;;5.63;5.03;;;;;;;20.03;74.83;98339.59;5071067;28;20204;-90
2023/07/11 01:57:39;;;;;;;5.93;4.90;;;;;;;20.01;75.70;98332.72;5070865;28;20238;-91
2023/07/11 02:00:07;;;;;;;5.60;5.00;;;;;;;19.97;75.68;98324.13;5072129;28;20215;-90
2023/07/11 02:02:33;;;;;;;5.93;4.83;;;;;;;19.95;75.75;98326.16;5075096;28;20295;-89
2023/07/11 02:05:00;;;;;;;5.40;4.90;;;;;;;19.89;75.80;98325.94;5074839;28;20301;-90
2023/07/11 02:07:26;;;;;;;5.50;5.00;;;;;;;19.83;76.34;98332.78;5074734;28;20230;-89
2023/07/11 02:09:53;;;;;;;5.53;4.73;;;;;;;19.79;76.67;98331.41;5074348;28;20222;-89
2023/07/11 02:12:20;;;;;;;6.03;5.27;;;;;;;19.79;77.32;98336.78;5074487;28;20207;-89
2023/07/11 02:14:48;;;;;;;5.20;4.70;;;;;;;19.77;77.77;98332.56;5074803;28;20204;-89
2023/07/11 02:17:16;;;;;;;6.07;5.30;;;;;;;19.80;78.03;98322.34;5074406;28;20231;-90
2023/07/11 02:19:44;;;;;;;6.10;5.37;;;;;;;19.80;78.24;98321.53;5074316;28;20329;-89
2023/07/11 02:22:11;;;;;;;5.60;5.10;;;;;;;19.79;78.71;98320.69;5074279;28;20219;-89
2023/07/11 02:24:39;;;;;;;7.40;5.03;;;;;;;19.78;78.81;98323.50;5074335;28;20577;-90
2023/07/11 02:27:06;;;;;;;6.57;5.53;;;;;;;19.77;79.08;98322.69;5074813;28;20243;-90
2023/07/11 02:29:33;;;;;;;6.47;5.43;;;;;;;19.80;79.41;98317.00;5075170;28;20203;-90
2023/07/11 02:32:01;;;;;;;7.13;5.13;;;;;;;19.78;79.86;98316.31;5076236;28;20225;-89
2023/07/11 02:34:28;;;;;;;5.80;5.20;;;;;;;19.78;80.36;98313.63;5078695;28;20215;-88
2023/07/11 02:36:54;;;;;;;5.63;5.07;;;;;;;19.74;80.80;98312.25;5079709;28;20228;-89
2023/07/11 02:39:21;;;;;;;6.77;5.40;;;;;;;19.68;80.61;98310.22;5077184;28;20214;-89
2023/07/11 02:41:47;;;;;;;6.50;5.33;;;;;;;19.58;80.83;98311.31;5076513;28;20204;-89
2023/07/11 02:44:14;;;;;;;5.33;4.83;;;;;;;19.50;80.67;98306.75;5077411;28;20279;-89
2023/07/11 02:46:40;;;;;;;6.37;5.30;;;;;;;19.44;80.38;98303.88;5082880;28;20234;-89
2023/07/11 02:49:08;;;;;;;5.03;4.53;;;;;;;19.40;80.11;98303.34;5078334;28;20327;-90
2023/07/11 02:51:35;;;;;;;5.67;5.00;;;;;;;19.35;80.23;98302.09;5074111;28;20704;-90
2023/07/11 02:54:02;;;;;;;5.17;4.67;;;;;;;19.30;80.66;98299.91;5074181;28;20223;-89
2023/07/11 02:56:28;;;;;;;5.27;4.77;;;;;;;19.33;80.32;98301.44;5074020;28;20227;-89
2023/07/11 02:58:59;;;;;;;5.80;4.70;;;;;;;19.29;79.89;98292.88;5073455;28;20233;-89
2023/07/11 03:01:25;;;;;;;5.10;4.60;;;;;;;19.25;80.67;98294.16;5073912;28;20212;-89
2023/07/11 03:03:52;;;;;;;6.23;5.00;;;;;;;19.23;80.04;98295.31;5073887;28;20207;-89
2023/07/11 03:06:20;;;;;;;5.97;4.70;;;;;;;19.18;79.83;98287.72;5074329;28;20234;-89
2023/07/11 03:08:46;;;;;;;5.67;5.07;;;;;;;19.12;80.48;98292.84;5073983;28;20204;-89
2023/07/11 03:11:13;;;;;;;6.20;4.83;;;;;;;19.11;81.08;98280.44;5072254;28;20211;-89
2023/07/11 03:13:40;;;;;;;5.00;4.50;;;;;;;19.07;81.39;98282.59;5073572;28;20226;-89
2023/07/11 03:16:06;;;;;;;5.03;4.57;;;;;;;19.03;82.22;98283.88;5073939;28;20211;-89
2023/07/11 03:18:33;;;;;;;7.07;5.87;;;;;;;19.04;82.05;98285.59;5073386;28;20227;-89
2023/07/11 03:21:01;;;;;;;5.83;5.20;;;;;;;18.99;82.23;98289.72;5086981;22;20586;-79
2023/07/11 03:23:30;;;;;;;5.90;4.70;;;;;;;18.94;81.99;98286.66;5073138;28;20230;-80
2023/07/11 03:25:57;;;;;;;4.83;4.43;;;;;;;18.89;81.86;98287.13;5073039;28;20693;-79
2023/07/11 03:28:23;;;;;;;5.50;4.97;;;;;;;18.81;82.24;98287.06;5072973;28;20210;-80
2023/07/11 03:30:51;;;;;;;5.37;4.87;;;;;;;18.80;82.39;98285.38;5072957;28;20231;-80
2023/07/11 03:33:17;;;;;;;6.00;5.33;;;;;;;18.80;82.67;98288.06;5072983;28;20211;-79
2023/07/11 03:35:49;;;;;;;6.50;5.20;;;;;;;18.80;83.10;98282.72;5073377;28;20215;-80
2023/07/11 03:38:15;;;;;;;5.70;5.10;;;;;;;18.82;82.99;98269.13;5072902;28;20223;-80
2023/07/11 03:40:43;;;;;;;5.73;4.80;;;;;;;18.83;83.03;98278.88;5072526;28;20231;-80
2023/07/11 03:43:09;;;;;;;6.07;4.70;;;;;;;18.84;83.15;98277.88;5072975;28;20230;-79
2023/07/11 03:45:36;;;;;;;6.23;5.00;;;;;;;18.81;82.77;98279.03;5072931;28;20215;-80
2023/07/11 03:48:03;;;;;;;5.67;5.07;;;;;;;18.82;83.09;98270.00;5072672;28;20550;-80
2023/07/11 03:50:29;;;;;;;4.97;4.47;;;;;;;18.84;82.96;98270.66;5072649;28;20234;-80
2023/07/11 03:52:56;;;;;;;7.10;5.40;;;;;;;18.83;83.25;98277.03;5072572;28;20218;-79
2023/07/11 03:55:22;;;;;;;5.43;4.87;;;;;;;18.88;83.65;98274.72;5072536;28;20219;-79
2023/07/11 03:57:50;;;;;;;6.53;5.00;;;;;;;18.91;83.29;98263.69;5072453;28;20578;-79
2023/07/11 04:00:17;;;;;;;6.13;5.17;;;;;;;18.95;82.86;98265.09;5071996;28;20238;-79
2023/07/11 04:02:43;;;;;;;5.93;4.80;;;;;;;18.95;83.11;98269.63;5072345;28;20211;-80
2023/07/11 04:05:10;;;;;;;5.87;4.80;;;;;;;18.93;83.27;98276.94;5072231;28;20207;-80
2023/07/11 04:07:36;;;;;;;5.90;4.97;;;;;;;18.94;83.60;98276.78;5072184;28;20216;-80
2023/07/11 04:10:03;;;;;;;6.07;5.03;;;;;;;18.96;83.71;98263.25;5071902;28;20718;-80
2023/07/11 04:12:29;;;;;;;5.90;4.80;;;;;;;18.95;83.80;98265.09;5072219;28;20213;-80
2023/07/11 04:14:57;;;;;;;5.53;5.03;;;;;;;18.98;83.42;98259.44;5072076;28;20681;-79
2023/07/11 04:17:23;;;;;;;5.70;5.17;;;;;;;18.98;83.71;98259.44;5071951;28;20209;-80
2023/07/11 04:19:51;;;;;;;5.63;4.70;;;;;;;19.01;83.78;98259.09;5071511;28;20235;-79
2023/07/11 04:22:17;;;;;;;5.80;5.13;;;;;;;19.10;82.96;98257.34;5071493;28;20211;-79
2023/07/11 04:24:44;;;;;;;7.27;5.27;;;;;;;19.16;83.21;98260.25;5072202;28;20546;-79
2023/07/11 04:27:10;;;;;;;5.83;5.23;;;;;;;19.18;82.94;98250.19;5071931;28;20210;-79
2023/07/11 04:29:37;;;;;;;5.50;4.83;;;;;;;19.23;83.57;98247.94;5071370;28;20223;-79
2023/07/11 04:32:05;;;;;;;6.17;5.33;;;;;;;19.34;83.67;98257.53;5072057;28;20214;-79
2023/07/11 04:34:32;;;;;;;6.17;5.43;;;;;;;19.39;83.34;98250.69;5071744;28;20589;-80
2023/07/11 04:36:58;;;;;;;5.67;5.07;;;;;;;19.38;83.40;98262.41;5071858;28;20212;-80
2023/07/11 04:39:25;;;;;;;5.63;4.97;;;;;;;19.42;83.66;98257.59;5071291;28;20231;-80
2023/07/11 04:41:51;;;;;;;6.27;5.57;;;;;;;19.49;83.59;98251.44;5071719;28;20218;-79
2023/07/11 04:44:18;;;;;;;6.03;5.43;;;;;;;19.61;83.58;98258.22;5071526;28;20238;-79
2023/07/11 04:46:44;;;;;;;8.00;5.80;;;;;;;19.67;83.94;98260.25;5071391;28;20218;-80
2023/07/11 04:49:12;;;;;;;6.50;5.90;;;;;;;19.76;84.55;98256.59;5071249;28;20214;-80
2023/07/11 04:51:39;;;;;;;6.63;5.90;;;;;;;19.85;85.02;98261.03;5071442;28;20207;-80
2023/07/11 04:54:06;;;;;;;7.23;6.53;;;;;;;20.01;84.73;98249.53;5071519;28;20214;-79
2023/07/11 04:56:33;;;;;;;7.50;6.20;;;;;;;20.14;84.48;98255.31;5071408;28;20207;-80
2023/07/11 04:59:00;;;;;;;8.07;6.33;;;;;;;20.27;83.90;98245.78;5071162;28;20231;-79
2023/07/11 05:01:26;;;;;;;7.43;6.40;;;;;;;20.37;83.58;98249.16;5070687;28;20238;-80
2023/07/11 05:03:53;;;;;;;7.43;6.63;;;;;;;20.47;83.38;98241.81;5070860;28;20211;-79
2023/07/11 05:06:20;;;;;;;6.83;6.00;;;;;;;20.56;83.22;98248.91;5071001;28;20694;-80
2023/07/11 05:08:47;;;;;;;7.70;6.00;;;;;;;20.65;82.76;98247.88;5071098;28;20206;-80
2023/07/11 05:11:16;;;;;;;8.70;6.30;;;;;;;20.87;81.29;98249.09;5070812;28;20579;-80
2023/07/11 05:13:44;;;;;;;8.37;6.10;;;;;;;21.05;80.38;98245.28;5071107;28;20207;-80
2023/07/11 05:16:13;;;;;;;7.27;6.07;;;;;;;21.33;78.88;98238.50;5070979;28;20233;-80
2023/07/11 05:18:40;;;;;;;6.03;5.20;;;;;;;21.75;77.32;98232.91;5071075;28;20570;-80
2023/07/11 05:21:08;;;;;;;7.00;5.70;;;;;;;22.12;75.38;98239.31;5070574;28;20235;-80
2023/07/11 05:23:37;;;;;;;8.27;5.90;;;;;;;22.52;73.23;98232.91;5071122;28;20207;-80
2023/07/11 05:26:04;;;;;;;6.03;5.43;;;;;;;22.89;71.58;98222.19;5071011;28;20712;-80
2023/07/11 05:28:30;;;;;;;7.20;6.10;;;;;;;23.12;69.18;98215.75;5070812;28;20582;-80
2023/07/11 05:30:57;;;;;;;6.20;5.50;;;;;;;23.42;68.33;98217.50;5070446;28;20223;-80
2023/07/11 05:33:24;;;;;;;7.47;5.90;;;;;;;23.70;66.76;98194.28;5071190;28;20218;-80
2023/07/11 05:36:01;;;;;;;6.53;5.70;;;;;;;23.93;65.21;98196.88;5073727;28;20210;-80
2023/07/11 05:38:27;;;;;;;6.93;5.70;;;;;;;24.16;63.78;98192.22;5075040;28;20223;-80
2023/07/11 05:40:58;;;;;;;6.45;5.68;;;;;;;24.38;63.02;98191.22;5075076;28;20800;-77
2023/07/11 05:43:24;;;;;;;6.87;5.70;;;;;;;24.57;61.02;98179.81;5075185;28;20235;-84
2023/07/11 05:45:51;;;;;;;8.63;5.80;;;;;;;24.76;60.61;98182.69;5075090;28;20211;-80
2023/07/11 05:48:17;;;;;;;6.67;5.83;;;;;;;25.00;59.22;98176.91;5074834;28;20207;-82
2023/07/11 05:50:44;;;;;;;7.10;5.72;;;;;;;25.23;58.21;98177.50;5074519;28;20219;-82
2023/07/11 05:53:10;;;;;;;7.10;6.00;;;;;;;25.45;57.34;98167.50;5074779;28;20203;-82
2023/07/11 05:55:37;;;;;;;7.97;6.10;;;;;;;25.68;56.41;98171.63;5074561;28;20203;-82
2023/07/11 05:58:05;;;;;;;8.70;5.72;;;;;;;25.81;55.79;98163.56;5074606;28;20659;-81
2023/07/11 06:00:31;;;;;;;6.93;5.20;;;;;;;25.96;55.01;98177.81;5074352;28;20231;-81
2023/07/11 06:02:58;;;;;;;6.95;6.05;;;;;;;26.08;54.13;98162.66;5074475;28;20210;-81
2023/07/11 06:05:24;;;;;;;6.80;5.57;;;;;;;26.15;53.89;98168.94;5074464;28;20211;-81
2023/07/11 06:07:51;;;;;;;6.90;5.65;;;;;;;26.29;53.37;98154.41;5074445;28;20203;-81
2023/07/11 06:10:17;;;;;;;5.60;5.10;;;;;;;26.46;53.17;98150.28;5074090;28;20231;-76
2023/07/11 06:12:44;;;;;;;6.30;5.68;;;;;;;26.68;52.63;98151.81;5074274;28;20211;-78
2023/07/11 06:15:12;;;;;;;5.47;4.97;;;;;;;26.93;52.56;98155.59;5074276;28;20207;-78
2023/07/11 06:17:38;;;;;;;5.70;5.10;;;;;;;27.16;51.58;98152.50;5074302;28;20226;-77
2023/07/11 06:20:09;;;;;;;7.57;5.80;;;;;;;27.35;51.21;98141.63;5073621;28;20235;-78
2023/07/11 06:22:35;;;;;;;7.35;5.18;;;;;;;27.45;49.90;98133.88;5074310;28;20207;-78
2023/07/11 06:25:02;;;;;;;7.15;5.25;;;;;;;27.57;49.75;98135.72;5074115;28;20207;-78
2023/07/11 06:27:29;;;;;;;10.65;5.50;;;;;;;27.71;49.12;98131.91;5074055;28;20249;-78
2023/07/11 06:29:56;;;;;;;9.38;5.93;;;;;;;27.93;48.62;98129.78;5073853;28;20250;-78
2023/07/11 06:32:23;;;;;;;7.82;5.15;;;;;;;28.11;48.65;98127.19;5074106;28;20204;-78
2023/07/11 06:34:50;;;;;;;5.78;5.20;;;;;;;28.35;47.83;98131.88;5073313;28;20207;-78
2023/07/11 06:37:16;;;;;;;8.27;5.25;;;;;;;28.47;47.66;98124.72;5073817;28;20219;-79
2023/07/11 06:39:45;;;;;;;8.32;5.15;;;;;;;28.57;47.73;98122.38;5073295;28;20728;-78
2023/07/11 06:42:12;;;;;;;5.55;4.82;;;;;;;28.71;47.00;98124.78;5073873;28;20207;-79
2023/07/11 06:44:39;;;;;;;5.93;5.20;;;;;;;28.83;46.17;98120.31;5073755;28;20211;-78
2023/07/11 06:47:05;;;;;;;5.70;4.50;;;;;;;28.91;45.82;98117.31;5073619;28;20207;-79
2023/07/11 06:49:34;;;;;;;7.18;5.20;;;;;;;28.99;45.85;98117.03;5073020;28;20246;-78
2023/07/11 06:52:00;;;;;;;5.20;4.70;;;;;;;29.16;45.67;98117.34;5073629;28;20211;-82
2023/07/11 06:54:27;;;;;;;7.07;4.97;;;;;;;29.25;44.65;98105.09;5073532;28;20697;-81
2023/07/11 06:56:54;;;;;;;7.25;5.00;;;;;;;29.37;44.77;98100.56;5073523;28;20218;-78
2023/07/11 06:59:21;;;;;;;5.57;4.97;;;;;;;29.49;44.91;98104.22;5073258;28;20231;-77
2023/07/11 07:01:48;;;;;;;8.48;5.00;;;;;;;29.56;44.92;98108.59;5073430;28;20239;-79
2023/07/11 07:04:14;;;;;;;6.68;5.05;;;;;;;29.57;44.89;98103.94;5073414;28;20706;-80
2023/07/11 07:06:43;;;;;;;5.82;5.03;;;;;;;29.47;44.88;98099.00;5073726;28;20215;-79
2023/07/11 07:09:10;;;;;;;7.22;4.60;;;;;;;29.32;45.76;98105.84;5073189;28;20214;-80
2023/07/11 07:11:37;;;;;;;5.10;4.60;;;;;;;28.88;45.89;98106.03;5073529;28;20216;-79
2023/07/11 07:14:08;;;;;;;6.57;5.10;;;;;;;28.56;46.68;98109.84;5072904;28;20204;-76
2023/07/11 07:16:36;;;;;;;7.82;5.15;;;;;;;28.11;47.73;98114.44;5073128;28;20214;-76
2023/07/11 07:19:03;;;;;;;6.53;5.22;;;;;;;27.79;48.19;98114.59;5071597;28;20237;-79
2023/07/11 07:21:30;;;;;;;6.15;4.68;;;;;;;27.53;48.10;98111.94;5071454;28;20223;-79
2023/07/11 07:23:59;;;;;;;5.85;4.80;;;;;;;27.40;48.82;98107.34;5072485;28;20215;-79
2023/07/11 07:26:25;;;;;;;7.55;5.47;;;;;;;27.41;49.10;98116.34;5072949;28;20670;-79
2023/07/11 07:28:52;;;;;;;6.43;5.05;;;;;;;27.40;48.21;98098.41;5073044;28;20222;-80
2023/07/11 07:31:18;;;;;;;5.93;4.95;;;;;;;27.42;48.13;98090.84;5072488;28;20261;-78
2023/07/11 07:33:45;;;;;;;5.80;4.53;;;;;;;27.46;49.22;98101.06;5072770;28;20219;-81
2023/07/11 07:36:13;;;;;;;5.28;4.68;;;;;;;27.48;49.30;98103.59;5072395;28;20677;-79
2023/07/11 07:38:40;;;;;;;5.40;4.55;;;;;;;27.62;49.20;98094.34;5072681;28;20235;-80
2023/07/11 07:41:10;;;;;;;5.88;4.53;;;;;;;27.70;48.19;98088.69;5072434;28;20273;-76
2023/07/11 07:43:39;;;;;;;5.88;4.60;;;;;;;27.85;47.09;98078.41;5072826;28;20207;-79
2023/07/11 07:46:07;;;;;;;6.60;5.10;;;;;;;27.89;46.87;98074.22;5072409;28;20207;-81
2023/07/11 07:48:33;;;;;;;5.38;4.88;;;;;;;28.00;46.79;98079.00;5072869;28;20207;-78
2023/07/11 07:51:04;;;;;;;7.47;4.85;;;;;;;28.07;46.37;98069.72;5072385;28;20243;-81
2023/07/11 07:53:32;;;;;;;5.63;4.53;;;;;;;28.14;46.21;98072.41;5072502;28;20590;-77
2023/07/11 07:56:03;;;;;;;5.35;4.80;;;;;;;28.25;45.23;98066.28;5072640;28;20211;-79
2023/07/11 07:58:31;;;;;;;5.03;4.53;;;;;;;28.38;45.45;98064.34;5071588;28;20214;-83
2023/07/11 08:00:57;;;;;;;5.28;4.45;;;;;;;28.57;45.61;98074.28;5072291;28;20231;-81
2023/07/11 08:03:24;;;;;;;5.20;4.22;;;;;;;28.66;43.91;98055.75;5072501;28;20208;-79
2023/07/11 08:05:54;;;;;;;5.28;4.07;;;;;;;28.69;43.74;98052.63;5072191;28;20701;-79
2023/07/11 08:08:21;;;;;;;5.88;4.68;;;;;;;28.84;44.37;98053.09;5072177;28;20207;-79
2023/07/11 08:10:47;;;;;;;5.90;4.90;;;;;;;28.89;43.25;98042.38;5071791;28;20232;-79
2023/07/11 08:13:14;;;;;;;5.43;4.22;;;;;;;28.96;43.79;98038.59;5072029;28;20685;-79
2023/07/11 08:15:43;;;;;;;5.15;4.65;;;;;;;29.03;42.88;98030.38;5071960;28;20216;-77
2023/07/11 08:18:10;;;;;;;5.43;4.40;;;;;;;29.16;43.52;98030.22;5071846;28;20203;-77
2023/07/11 08:20:37;;;;;;;5.65;4.78;;;;;;;29.30;43.37;98037.19;5071701;28;20239;-77
2023/07/11 08:23:03;;;;;;;5.80;4.57;;;;;;;29.32;42.57;98022.28;5071767;28;20591;-77
2023/07/11 08:25:30;;;;;;;5.05;4.63;;;;;;;29.49;42.34;98014.34;5071726;28;20211;-77
2023/07/11 08:27:56;;;;;;;5.13;4.28;;;;;;;29.60;42.10;98021.78;5071709;28;20219;-77
2023/07/11 08:30:23;;;;;;;5.72;4.63;;;;;;;29.73;42.54;98021.63;5071696;28;20224;-77
2023/07/11 08:32:51;;;;;;;5.78;5.07;;;;;;;29.85;43.28;98036.97;5071615;28;20216;-77
2023/07/11 08:35:17;;;;;;;5.60;5.10;;;;;;;29.95;42.57;98028.25;5071369;28;20562;-75
2023/07/11 08:37:44;;;;;;;6.50;4.70;;;;;;;30.01;42.97;98013.69;5071620;28;20207;-75
2023/07/11 08:40:18;;;;;;;6.13;4.93;;;;;;;30.08;41.87;98008.97;5071684;28;20235;-76
2023/07/11 08:42:45;;;;;;;5.40;4.90;;;;;;;30.12;41.69;97989.22;5071757;28;20207;-75
2023/07/11 08:45:20;;;;;;;7.68;4.60;;;;;;;30.08;42.13;98000.81;5070013;28;20211;-75
2023/07/11 08:47:56;;;;;;;5.25;4.50;;;;;;;30.13;42.02;98006.44;5070726;28;20211;-76
2023/07/11 08:50:26;;;;;;;6.25;5.20;;;;;;;30.21;42.52;97998.72;5070273;28;20227;-75
2023/07/11 08:53:03;;;;;;;5.47;4.97;;;;;;;30.36;42.73;98007.31;5071283;28;20203;-75
2023/07/11 08:55:33;;;;;;;5.60;5.00;;;;;;;30.56;43.05;98009.72;5071559;28;20583;-75
2023/07/11 08:58:05;;;;;;;6.20;5.05;;;;;;;30.61;41.81;97982.56;5071355;28;20211;-75
2023/07/11 09:00:34;;;;;;;5.40;4.90;;;;;;;30.75;42.16;97997.69;5071225;28;20231;-75
2023/07/11 09:03:12;;;;;;;6.05;4.85;;;;;;;30.81;41.61;97983.09;5071429;28;20686;-75
2023/07/11 09:05:43;;;;;;;6.38;5.75;;;;;;;30.89;41.92;97980.84;5071573;28;20207;-76
2023/07/11 09:08:15;;;;;;;6.03;5.43;;;;;;;30.99;42.28;97991.16;5071195;28;20207;-77
2023/07/11 09:10:53;;;;;;;5.80;5.28;;;;;;;31.17;42.70;97986.38;5071182;28;20227;-76
2023/07/11 09:13:31;;;;;;;6.85;5.30;;;;;;;31.27;41.90;97977.59;5071133;28;20210;-77
2023/07/11 09:16:07;;;;;;;6.35;5.50;;;;;;;31.36;42.87;97987.91;5071344;28;20207;-76
2023/07/11 09:18:44;;;;;;;9.05;5.55;;;;;;;31.44;43.36;97987.56;5071096;28;20214;-76
2023/07/11 09:21:15;;;;;;;6.85;5.32;;;;;;;31.44;43.05;97984.00;5026835;22;20248;-77
2023/07/11 09:23:52;;;;;;;5.53;5.03;;;;;;;31.51;43.51;97973.75;4969539;28;20215;-77
2023/07/11 09:26:25;;;;;;;7.15;5.55;;;;;;;31.58;43.62;97979.91;4968055;28;20692;-77
2023/07/11 09:28:59;;;;;;;6.15;5.55;;;;;;;31.69;43.38;97966.22;4968910;28;20214;-77
2023/07/11 09:31:25;;;;;;;6.28;5.43;;;;;;;31.83;42.18;97961.31;4968802;28;20227;-77
2023/07/11 09:33:56;;;;;;;7.60;6.03;;;;;;;32.03;42.77;97964.44;4968782;28;20219;-77
2023/07/11 09:36:30;;;;;;;6.13;5.35;;;;;;;32.01;42.74;97955.63;4968633;28;20673;-77
2023/07/11 09:39:02;;;;;;;7.03;6.32;;;;;;;32.00;42.41;97946.63;4969074;28;20309;-78
2023/07/11 09:41:40;;;;;;;6.20;5.70;;;;;;;32.01;41.32;97936.50;4968707;28;20340;-78
2023/07/11 09:44:10;;;;;;;7.18;5.63;;;;;;;31.95;40.92;97929.28;4968800;28;20237;-78
2023/07/11 09:46:36;;;;;;;8.00;6.05;;;;;;;32.00;40.40;97929.38;4969133;28;20225;-76
2023/07/11 09:49:07;;;;;;;6.57;5.88;;;;;;;32.00;40.55;97927.47;4971077;28;20210;-80
2023/07/11 09:51:38;;;;;;;5.85;5.25;;;;;;;32.17;40.95;97938.44;4971349;28;20227;-81
2023/07/11 09:54:16;;;;;;;6.25;5.50;;;;;;;32.31;40.95;97937.91;4970353;28;20226;-81
2023/07/11 09:56:45;;;;;;;6.57;5.88;;;;;;;32.34;40.19;97922.91;4973866;28;20263;-81
2023/07/11 09:59:13;;;;;;;6.93;6.00;;;;;;;32.28;40.91;97926.63;4971020;28;20319;-84
2023/07/11 10:01:40;;;;;;;6.60;5.70;;;;;;;32.51;40.54;97929.19;4972316;28;20241;-80
2023/07/11 10:04:10;;;;;;;6.35;5.43;;;;;;;32.66;40.17;97922.06;4974036;28;20214;-81
2023/07/11 10:06:42;;;;;;;6.28;5.68;;;;;;;32.77;39.85;97914.84;4972736;28;20370;-78
2023/07/11 10:09:16;;;;;;;6.90;5.72;;;;;;;32.89;38.87;97897.22;4973640;28;20211;-79
2023/07/11 10:11:48;;;;;;;9.05;5.90;;;;;;;32.84;40.14;97913.59;4973533;28;20236;-79
2023/07/11 10:14:17;;;;;;;6.55;5.82;;;;;;;32.89;40.07;97912.84;4973006;28;20230;-80
2023/07/11 10:16:45;;;;;;;6.32;5.50;;;;;;;33.08;39.26;97909.56;4972052;28;20211;-79
2023/07/11 10:19:15;;;;;;;8.20;6.13;;;;;;;33.18;39.82;97915.16;4970592;28;20242;-80
2023/07/11 10:21:44;;;;;;;7.25;5.93;;;;;;;33.26;40.04;97908.41;4972819;28;20772;-81
2023/07/11 10:24:17;;;;;;;5.88;5.38;;;;;;;33.26;38.84;97892.84;4974657;28;20211;-82
2023/07/11 10:26:45;;;;;;;6.85;5.95;;;;;;;33.16;38.60;97895.41;4974995;28;20219;-80
2023/07/11 10:29:16;;;;;;;6.53;5.88;;;;;;;33.10;38.78;97893.69;4972115;28;20215;-79
2023/07/11 10:31:49;;;;;;;6.93;5.85;;;;;;;33.15;38.43;97873.75;4972452;28;20238;-79
2023/07/11 10:34:22;;;;;;;7.45;6.25;;;;;;;33.28;38.34;97876.13;4972204;28;20210;-81
2023/07/11 10:36:52;;;;;;;6.47;5.70;;;;;;;33.30;39.20;97887.66;4972005;28;20601;-81
2023/07/11 10:39:25;;;;;;;7.25;6.13;;;;;;;33.29;39.19;97880.50;4972133;28;20215;-79
2023/07/11 10:41:56;;;;;;;6.10;5.50;;;;;;;33.39;38.89;97873.25;4972180;28;20284;-78
2023/07/11 10:44:28;;;;;;;7.75;5.85;;;;;;;33.43;38.63;97873.56;4972491;28;20268;-79
2023/07/11 10:46:57;;;;;;;6.30;5.63;;;;;;;33.37;39.06;97875.41;4972502;28;20222;-79
2023/07/11 10:49:29;;;;;;;6.28;5.68;;;;;;;33.45;39.00;97864.00;4971753;28;20215;-80
2023/07/11 10:52:02;;;;;;;6.38;5.80;;;;;;;33.65;38.52;97864.22;4972077;28;20239;-80
2023/07/11 10:54:41;;;;;;;6.28;5.47;;;;;;;33.71;38.74;97863.19;4972217;28;20241;-79
2023/07/11 10:57:14;;;;;;;6.18;5.40;;;;;;;33.80;38.45;97861.66;4971973;28;20226;-77
2023/07/11 10:59:41;;;;;;;7.38;5.40;;;;;;;33.86;37.13;97826.91;4971555;28;20548;-77
2023/07/11 11:02:14;;;;;;;6.43;5.82;;;;;;;33.85;36.87;97820.56;4971686;28;20214;-76
2023/07/11 11:05:04;;;;;;;9.57;5.68;;;;;;;33.96;38.21;97832.44;4971980;28;20715;-79
2023/07/11 11:07:37;;;;;;;8.75;5.90;;;;;;;34.07;37.88;97828.72;4971542;28;20214;-79
2023/07/11 11:10:12;;;;;;;6.28;5.65;;;;;;;34.07;37.65;97834.19;4971346;28;20230;-82
2023/07/11 11:12:42;;;;;;;6.70;5.97;;;;;;;34.25;37.24;97822.81;4971896;28;20214;-80
2023/07/11 11:15:32;;;;;;;7.18;6.28;;;;;;;34.28;36.38;97805.88;4971921;28;20218;-80
2023/07/11 11:18:16;;;;;;;6.03;5.53;;;;;;;34.26;37.06;97810.78;4971609;28;20712;-80
2023/07/11 11:21:01;;;;;;;6.30;5.70;;;;;;;34.32;36.96;97807.81;4971006;28;20333;-80
2023/07/11 11:23:37;;;;;;;6.97;5.57;;;;;;;34.47;38.07;97818.06;4971538;28;20214;-81
2023/07/11 11:26:19;;;;;;;6.43;5.82;;;;;;;34.63;37.51;97811.56;4971707;28;20214;-82
2023/07/11 11:28:57;;;;;;;6.72;5.53;;;;;;;34.78;37.78;97814.44;4971555;28;20214;-81
2023/07/11 11:31:26;;;;;;;6.13;5.53;;;;;;;34.84;36.56;97791.41;4971432;28;20230;-81
2023/07/11 11:34:16;;;;;;;6.63;6.03;;;;;;;34.84;36.64;97788.66;4970158;28;20219;-81
2023/07/11 11:36:53;;;;;;;6.43;5.80;;;;;;;35.00;37.27;97796.69;4971608;28;20211;-82
2023/07/11 11:39:30;;;;;;;6.53;5.80;;;;;;;35.11;36.47;97781.03;4970951;28;20214;-81
2023/07/11 11:42:01;;;;;;;6.50;5.68;;;;;;;35.26;36.69;97781.13;4971438;28;20249;-81